sensor_id;sensor_type;location;lat;lon;timestamp;P1;durP1;ratioP1;P2;durP2;ratioP2
59410;SDS011;45215;32.610;-115.482;2022-08-25T00:01:28;57.13;;;32.95;;
59410;SDS011;45215;32.610;-115.482;2022-08-25T00:03:57;53.70;;;31.80;;
59410;SDS011;45215;32.610;-115.482;2022-08-25T00:06:25;49.05;;;30.23;;
59410;SDS011;45215;32.610;-115.482;2022-08-25T00:08:51;49.80;;;29.63;;
59410;SDS011;45215;32.610;-115.482;2022-08-25T00:11:19;49.65;;;29.10;;
59410;SDS011;45215;32.610;-115.482;2022-08-25T00:13:48;52.67;;;29.25;;
59410;SDS011;45215;32.610;-115.482;2022-08-25T00:16:19;43.53;;;26.47;;
59410;SDS011;45215;32.610;-115.482;2022-08-25T00:18:54;43.28;;;26.40;;
59410;SDS011;45215;32.610;-115.482;2022-08-25T00:21:24;41.65;;;24.75;;
59410;SDS011;45215;32.610;-115.482;2022-08-25T00:23:51;40.40;;;24.75;;
59410;SDS011;45215;32.610;-115.482;2022-08-25T00:26:18;37.00;;;22.70;;
59410;SDS011;45215;32.610;-115.482;2022-08-25T00:28:45;47.42;;;22.33;;
59410;SDS011;45215;32.610;-115.482;2022-08-25T00:31:16;41.28;;;19.83;;
59410;SDS011;45215;32.610;-115.482;2022-08-25T00:33:45;32.63;;;19.15;;
59410;SDS011;45215;32.610;-115.482;2022-08-25T00:36:13;35.63;;;19.05;;
59410;SDS011;45215;32.610;-115.482;2022-08-25T00:38:41;36.22;;;17.63;;
59410;SDS011;45215;32.610;-115.482;2022-08-25T00:41:10;30.70;;;17.05;;
59410;SDS011;45215;32.610;-115.482;2022-08-25T00:46:09;24.90;;;14.68;;
59410;SDS011;45215;32.610;-115.482;2022-08-25T00:48:36;28.67;;;14.13;;
59410;SDS011;45215;32.610;-115.482;2022-08-25T00:51:06;24.40;;;14.85;;
59410;SDS011;45215;32.610;-115.482;2022-08-25T00:53:34;25.55;;;13.50;;
59410;SDS011;45215;32.610;-115.482;2022-08-25T00:56:01;22.23;;;12.93;;
59410;SDS011;45215;32.610;-115.482;2022-08-25T00:58:28;23.42;;;13.27;;
59410;SDS011;45215;32.610;-115.482;2022-08-25T01:00:57;23.85;;;11.45;;
59410;SDS011;45215;32.610;-115.482;2022-08-25T01:03:26;30.58;;;10.52;;
59410;SDS011;45215;32.610;-115.482;2022-08-25T01:05:54;20.15;;;10.27;;
59410;SDS011;45215;32.610;-115.482;2022-08-25T01:08:23;20.98;;;10.20;;
59410;SDS011;45215;32.610;-115.482;2022-08-25T01:10:53;21.85;;;9.82;;
59410;SDS011;45215;32.610;-115.482;2022-08-25T01:13:22;19.42;;;10.05;;
59410;SDS011;45215;32.610;-115.482;2022-08-25T01:15:55;16.65;;;8.68;;
59410;SDS011;45215;32.610;-115.482;2022-08-25T01:18:23;14.35;;;8.32;;
59410;SDS011;45215;32.610;-115.482;2022-08-25T01:20:54;13.23;;;8.23;;
59410;SDS011;45215;32.610;-115.482;2022-08-25T01:23:22;13.10;;;8.10;;
59410;SDS011;45215;32.610;-115.482;2022-08-25T01:25:50;15.80;;;8.13;;
59410;SDS011;45215;32.610;-115.482;2022-08-25T01:28:23;13.13;;;7.28;;
59410;SDS011;45215;32.610;-115.482;2022-08-25T01:30:50;12.05;;;7.50;;
59410;SDS011;45215;32.610;-115.482;2022-08-25T01:33:16;12.32;;;7.30;;
59410;SDS011;45215;32.610;-115.482;2022-08-25T01:35:43;10.88;;;6.75;;
59410;SDS011;45215;32.610;-115.482;2022-08-25T01:38:10;11.32;;;6.55;;
59410;SDS011;45215;32.610;-115.482;2022-08-25T01:40:36;10.85;;;6.68;;
59410;SDS011;45215;32.610;-115.482;2022-08-25T01:45:54;11.77;;;6.30;;
59410;SDS011;45215;32.610;-115.482;2022-08-25T01:48:22;10.27;;;5.63;;
59410;SDS011;45215;32.610;-115.482;2022-08-25T01:50:48;18.17;;;5.32;;
59410;SDS011;45215;32.610;-115.482;2022-08-25T01:53:20;12.25;;;5.50;;
59410;SDS011;45215;32.610;-115.482;2022-08-25T01:55:50;12.15;;;5.28;;
59410;SDS011;45215;32.610;-115.482;2022-08-25T01:58:18;14.75;;;5.78;;
59410;SDS011;45215;32.610;-115.482;2022-08-25T02:00:51;9.05;;;4.60;;
59410;SDS011;45215;32.610;-115.482;2022-08-25T02:03:20;10.20;;;4.75;;
59410;SDS011;45215;32.610;-115.482;2022-08-25T02:05:48;9.45;;;4.55;;
59410;SDS011;45215;32.610;-115.482;2022-08-25T02:08:16;7.57;;;4.15;;
59410;SDS011;45215;32.610;-115.482;2022-08-25T02:10:42;9.48;;;4.57;;
59410;SDS011;45215;32.610;-115.482;2022-08-25T02:13:10;9.13;;;4.60;;
59410;SDS011;45215;32.610;-115.482;2022-08-25T02:15:47;5.82;;;4.10;;
59410;SDS011;45215;32.610;-115.482;2022-08-25T02:18:16;6.78;;;4.03;;
59410;SDS011;45215;32.610;-115.482;2022-08-25T02:20:43;6.38;;;3.85;;
59410;SDS011;45215;32.610;-115.482;2022-08-25T02:23:10;7.38;;;4.00;;
59410;SDS011;45215;32.610;-115.482;2022-08-25T02:25:37;7.03;;;4.00;;
59410;SDS011;45215;32.610;-115.482;2022-08-25T02:28:05;5.65;;;3.67;;
59410;SDS011;45215;32.610;-115.482;2022-08-25T02:30:33;7.53;;;3.50;;
59410;SDS011;45215;32.610;-115.482;2022-08-25T02:32:59;4.93;;;3.65;;
59410;SDS011;45215;32.610;-115.482;2022-08-25T02:35:25;15.93;;;3.75;;
59410;SDS011;45215;32.610;-115.482;2022-08-25T02:37:52;6.47;;;3.13;;
59410;SDS011;45215;32.610;-115.482;2022-08-25T02:40:19;10.63;;;3.75;;
59410;SDS011;45215;32.610;-115.482;2022-08-25T02:42:46;8.48;;;3.08;;
59410;SDS011;45215;32.610;-115.482;2022-08-25T02:45:14;10.48;;;3.50;;
59410;SDS011;45215;32.610;-115.482;2022-08-25T02:47:41;9.48;;;3.08;;
59410;SDS011;45215;32.610;-115.482;2022-08-25T02:50:07;11.82;;;4.07;;
59410;SDS011;45215;32.610;-115.482;2022-08-25T02:52:34;14.20;;;6.68;;
59410;SDS011;45215;32.610;-115.482;2022-08-25T02:55:01;15.68;;;9.23;;
59410;SDS011;45215;32.610;-115.482;2022-08-25T02:57:33;19.80;;;11.40;;
59410;SDS011;45215;32.610;-115.482;2022-08-25T03:00:00;22.27;;;11.65;;
59410;SDS011;45215;32.610;-115.482;2022-08-25T03:02:27;21.00;;;12.73;;
59410;SDS011;45215;32.610;-115.482;2022-08-25T03:04:53;22.17;;;13.73;;
59410;SDS011;45215;32.610;-115.482;2022-08-25T03:07:20;22.50;;;14.98;;
59410;SDS011;45215;32.610;-115.482;2022-08-25T03:09:46;24.50;;;16.27;;
59410;SDS011;45215;32.610;-115.482;2022-08-25T03:12:13;24.88;;;15.13;;
59410;SDS011;45215;32.610;-115.482;2022-08-25T03:14:41;23.52;;;15.63;;
59410;SDS011;45215;32.610;-115.482;2022-08-25T03:17:08;23.08;;;15.38;;
59410;SDS011;45215;32.610;-115.482;2022-08-25T03:19:34;25.35;;;16.13;;
59410;SDS011;45215;32.610;-115.482;2022-08-25T03:22:00;25.95;;;15.90;;
59410;SDS011;45215;32.610;-115.482;2022-08-25T03:24:27;25.60;;;15.77;;
59410;SDS011;45215;32.610;-115.482;2022-08-25T03:26:53;23.65;;;16.00;;
59410;SDS011;45215;32.610;-115.482;2022-08-25T03:29:23;23.00;;;14.48;;
59410;SDS011;45215;32.610;-115.482;2022-08-25T03:31:54;23.42;;;16.02;;
59410;SDS011;45215;32.610;-115.482;2022-08-25T03:34:23;22.42;;;14.50;;
59410;SDS011;45215;32.610;-115.482;2022-08-25T03:36:52;21.20;;;13.43;;
59410;SDS011;45215;32.610;-115.482;2022-08-25T03:39:20;20.17;;;13.75;;
59410;SDS011;45215;32.610;-115.482;2022-08-25T03:41:49;20.67;;;13.90;;
59410;SDS011;45215;32.610;-115.482;2022-08-25T03:44:16;20.42;;;13.48;;
59410;SDS011;45215;32.610;-115.482;2022-08-25T03:46:44;19.50;;;12.90;;
59410;SDS011;45215;32.610;-115.482;2022-08-25T03:49:13;19.90;;;12.25;;
59410;SDS011;45215;32.610;-115.482;2022-08-25T03:51:43;19.70;;;12.43;;
59410;SDS011;45215;32.610;-115.482;2022-08-25T03:54:17;17.45;;;12.05;;
59410;SDS011;45215;32.610;-115.482;2022-08-25T03:56:45;15.32;;;10.85;;
59410;SDS011;45215;32.610;-115.482;2022-08-25T03:59:11;16.80;;;11.18;;
59410;SDS011;45215;32.610;-115.482;2022-08-25T04:01:38;14.68;;;9.98;;
59410;SDS011;45215;32.610;-115.482;2022-08-25T04:04:06;16.13;;;10.52;;
59410;SDS011;45215;32.610;-115.482;2022-08-25T04:06:34;14.50;;;10.02;;
59410;SDS011;45215;32.610;-115.482;2022-08-25T04:09:02;12.48;;;9.10;;
59410;SDS011;45215;32.610;-115.482;2022-08-25T04:11:28;14.10;;;9.50;;
59410;SDS011;45215;32.610;-115.482;2022-08-25T04:13:55;14.48;;;9.15;;
59410;SDS011;45215;32.610;-115.482;2022-08-25T04:16:24;14.23;;;9.00;;
59410;SDS011;45215;32.610;-115.482;2022-08-25T04:18:54;11.98;;;8.23;;
59410;SDS011;45215;32.610;-115.482;2022-08-25T04:21:21;12.30;;;8.15;;
59410;SDS011;45215;32.610;-115.482;2022-08-25T04:23:49;12.15;;;8.40;;
59410;SDS011;45215;32.610;-115.482;2022-08-25T04:26:27;10.65;;;7.60;;
59410;SDS011;45215;32.610;-115.482;2022-08-25T04:28:57;11.00;;;7.57;;
59410;SDS011;45215;32.610;-115.482;2022-08-25T04:31:24;11.18;;;7.72;;
59410;SDS011;45215;32.610;-115.482;2022-08-25T04:33:52;11.60;;;7.00;;
59410;SDS011;45215;32.610;-115.482;2022-08-25T04:36:19;9.77;;;6.93;;
59410;SDS011;45215;32.610;-115.482;2022-08-25T04:38:46;9.90;;;6.32;;
59410;SDS011;45215;32.610;-115.482;2022-08-25T04:41:16;10.77;;;6.68;;
59410;SDS011;45215;32.610;-115.482;2022-08-25T04:43:44;12.43;;;9.68;;
59410;SDS011;45215;32.610;-115.482;2022-08-25T04:46:11;18.73;;;13.85;;
59410;SDS011;45215;32.610;-115.482;2022-08-25T04:48:40;16.35;;;13.25;;
59410;SDS011;45215;32.610;-115.482;2022-08-25T04:51:08;15.23;;;12.40;;
59410;SDS011;45215;32.610;-115.482;2022-08-25T04:53:36;15.68;;;12.23;;
59410;SDS011;45215;32.610;-115.482;2022-08-25T04:56:08;13.95;;;11.80;;
59410;SDS011;45215;32.610;-115.482;2022-08-25T04:58:36;13.57;;;10.77;;
59410;SDS011;45215;32.610;-115.482;2022-08-25T05:01:03;12.65;;;9.93;;
59410;SDS011;45215;32.610;-115.482;2022-08-25T05:03:36;10.57;;;9.48;;
59410;SDS011;45215;32.610;-115.482;2022-08-25T05:06:03;11.15;;;8.90;;
59410;SDS011;45215;32.610;-115.482;2022-08-25T05:08:30;9.88;;;8.40;;
59410;SDS011;45215;32.610;-115.482;2022-08-25T05:10:57;10.45;;;8.05;;
59410;SDS011;45215;32.610;-115.482;2022-08-25T05:13:24;10.00;;;8.02;;
59410;SDS011;45215;32.610;-115.482;2022-08-25T05:15:54;10.05;;;7.60;;
59410;SDS011;45215;32.610;-115.482;2022-08-25T05:18:23;9.55;;;7.03;;
59410;SDS011;45215;32.610;-115.482;2022-08-25T05:20:51;8.77;;;6.90;;
59410;SDS011;45215;32.610;-115.482;2022-08-25T05:23:19;7.53;;;6.45;;
59410;SDS011;45215;32.610;-115.482;2022-08-25T05:25:46;7.35;;;6.03;;
59410;SDS011;45215;32.610;-115.482;2022-08-25T05:28:13;8.77;;;5.97;;
59410;SDS011;45215;32.610;-115.482;2022-08-25T05:30:41;7.88;;;5.40;;
59410;SDS011;45215;32.610;-115.482;2022-08-25T05:33:09;8.15;;;5.22;;
59410;SDS011;45215;32.610;-115.482;2022-08-25T05:35:37;8.73;;;5.10;;
59410;SDS011;45215;32.610;-115.482;2022-08-25T05:38:04;8.43;;;5.22;;
59410;SDS011;45215;32.610;-115.482;2022-08-25T05:40:30;5.95;;;4.78;;
59410;SDS011;45215;32.610;-115.482;2022-08-25T05:42:57;6.05;;;4.60;;
59410;SDS011;45215;32.610;-115.482;2022-08-25T05:45:23;8.52;;;6.07;;
59410;SDS011;45215;32.610;-115.482;2022-08-25T05:47:50;9.00;;;6.97;;
59410;SDS011;45215;32.610;-115.482;2022-08-25T05:50:16;10.20;;;8.60;;
59410;SDS011;45215;32.610;-115.482;2022-08-25T05:52:43;11.65;;;10.40;;
59410;SDS011;45215;32.610;-115.482;2022-08-25T05:55:09;14.63;;;12.13;;
59410;SDS011;45215;32.610;-115.482;2022-08-25T05:57:36;15.43;;;12.98;;
59410;SDS011;45215;32.610;-115.482;2022-08-25T06:00:06;16.40;;;13.13;;
59410;SDS011;45215;32.610;-115.482;2022-08-25T06:02:33;14.25;;;12.68;;
59410;SDS011;45215;32.610;-115.482;2022-08-25T06:05:08;17.80;;;14.93;;
59410;SDS011;45215;32.610;-115.482;2022-08-25T06:07:36;17.90;;;15.48;;
59410;SDS011;45215;32.610;-115.482;2022-08-25T06:10:03;17.42;;;15.35;;
59410;SDS011;45215;32.610;-115.482;2022-08-25T06:12:36;17.48;;;15.57;;
59410;SDS011;45215;32.610;-115.482;2022-08-25T06:15:03;19.40;;;15.88;;
59410;SDS011;45215;32.610;-115.482;2022-08-25T06:17:30;18.73;;;16.17;;
59410;SDS011;45215;32.610;-115.482;2022-08-25T06:19:57;18.60;;;15.95;;
59410;SDS011;45215;32.610;-115.482;2022-08-25T06:22:24;19.33;;;17.00;;
59410;SDS011;45215;32.610;-115.482;2022-08-25T06:24:50;17.88;;;15.98;;
59410;SDS011;45215;32.610;-115.482;2022-08-25T06:27:17;17.63;;;15.52;;
59410;SDS011;45215;32.610;-115.482;2022-08-25T06:29:43;17.67;;;15.77;;
59410;SDS011;45215;32.610;-115.482;2022-08-25T06:32:09;19.13;;;16.27;;
59410;SDS011;45215;32.610;-115.482;2022-08-25T06:34:36;17.95;;;16.05;;
59410;SDS011;45215;32.610;-115.482;2022-08-25T06:37:02;16.45;;;14.75;;
59410;SDS011;45215;32.610;-115.482;2022-08-25T06:39:28;16.95;;;14.45;;
59410;SDS011;45215;32.610;-115.482;2022-08-25T06:41:54;16.20;;;14.35;;
59410;SDS011;45215;32.610;-115.482;2022-08-25T06:44:23;17.85;;;15.15;;
59410;SDS011;45215;32.610;-115.482;2022-08-25T06:46:51;23.98;;;17.38;;
59410;SDS011;45215;32.610;-115.482;2022-08-25T06:49:18;28.80;;;20.27;;
59410;SDS011;45215;32.610;-115.482;2022-08-25T06:51:45;30.77;;;21.48;;
59410;SDS011;45215;32.610;-115.482;2022-08-25T06:54:12;35.53;;;23.58;;
59410;SDS011;45215;32.610;-115.482;2022-08-25T06:56:38;38.28;;;24.58;;
59410;SDS011;45215;32.610;-115.482;2022-08-25T06:59:05;38.38;;;25.50;;
59410;SDS011;45215;32.610;-115.482;2022-08-25T07:01:33;40.17;;;26.45;;
59410;SDS011;45215;32.610;-115.482;2022-08-25T07:04:02;42.55;;;27.10;;
59410;SDS011;45215;32.610;-115.482;2022-08-25T07:06:30;43.10;;;28.30;;
59410;SDS011;45215;32.610;-115.482;2022-08-25T07:08:59;43.33;;;28.05;;
59410;SDS011;45215;32.610;-115.482;2022-08-25T07:11:28;44.83;;;28.40;;
59410;SDS011;45215;32.610;-115.482;2022-08-25T07:14:01;42.90;;;27.17;;
59410;SDS011;45215;32.610;-115.482;2022-08-25T07:16:29;43.38;;;28.00;;
59410;SDS011;45215;32.610;-115.482;2022-08-25T07:18:57;45.88;;;28.23;;
59410;SDS011;45215;32.610;-115.482;2022-08-25T07:21:25;44.13;;;27.77;;
59410;SDS011;45215;32.610;-115.482;2022-08-25T07:23:54;43.53;;;27.05;;
59410;SDS011;45215;32.610;-115.482;2022-08-25T07:26:24;40.05;;;26.25;;
59410;SDS011;45215;32.610;-115.482;2022-08-25T07:28:52;38.78;;;25.85;;
59410;SDS011;45215;32.610;-115.482;2022-08-25T07:31:18;40.25;;;25.60;;
59410;SDS011;45215;32.610;-115.482;2022-08-25T07:33:44;38.67;;;24.85;;
59410;SDS011;45215;32.610;-115.482;2022-08-25T07:36:30;39.92;;;25.17;;
59410;SDS011;45215;32.610;-115.482;2022-08-25T07:38:57;38.45;;;24.23;;
59410;SDS011;45215;32.610;-115.482;2022-08-25T07:41:25;37.33;;;24.13;;
59410;SDS011;45215;32.610;-115.482;2022-08-25T07:43:51;36.33;;;23.92;;
59410;SDS011;45215;32.610;-115.482;2022-08-25T07:46:17;37.72;;;22.88;;
59410;SDS011;45215;32.610;-115.482;2022-08-25T07:48:44;35.75;;;22.55;;
59410;SDS011;45215;32.610;-115.482;2022-08-25T07:51:10;32.55;;;21.38;;
59410;SDS011;45215;32.610;-115.482;2022-08-25T07:53:38;35.33;;;22.42;;
59410;SDS011;45215;32.610;-115.482;2022-08-25T07:56:11;35.90;;;22.58;;
59410;SDS011;45215;32.610;-115.482;2022-08-25T07:58:39;38.20;;;24.02;;
59410;SDS011;45215;32.610;-115.482;2022-08-25T08:01:11;39.88;;;24.80;;
59410;SDS011;45215;32.610;-115.482;2022-08-25T08:06:12;37.63;;;24.27;;
59410;SDS011;45215;32.610;-115.482;2022-08-25T08:08:41;39.80;;;24.15;;
59410;SDS011;45215;32.610;-115.482;2022-08-25T08:13:47;42.53;;;25.20;;
59410;SDS011;45215;32.610;-115.482;2022-08-25T08:16:15;38.10;;;24.05;;
59410;SDS011;45215;32.610;-115.482;2022-08-25T08:18:43;39.55;;;24.75;;
59410;SDS011;45215;32.610;-115.482;2022-08-25T08:21:13;37.00;;;23.50;;
59410;SDS011;45215;32.610;-115.482;2022-08-25T08:23:45;34.95;;;22.95;;
59410;SDS011;45215;32.610;-115.482;2022-08-25T08:26:12;35.00;;;22.70;;
59410;SDS011;45215;32.610;-115.482;2022-08-25T08:28:39;37.15;;;24.05;;
59410;SDS011;45215;32.610;-115.482;2022-08-25T08:31:05;32.47;;;21.52;;
59410;SDS011;45215;32.610;-115.482;2022-08-25T08:33:32;34.58;;;21.83;;
59410;SDS011;45215;32.610;-115.482;2022-08-25T08:36:00;34.22;;;21.35;;
59410;SDS011;45215;32.610;-115.482;2022-08-25T08:38:28;32.00;;;20.20;;
59410;SDS011;45215;32.610;-115.482;2022-08-25T08:40:57;33.08;;;20.75;;
59410;SDS011;45215;32.610;-115.482;2022-08-25T08:43:52;31.40;;;20.00;;
59410;SDS011;45215;32.610;-115.482;2022-08-25T08:46:30;30.90;;;19.58;;
59410;SDS011;45215;32.610;-115.482;2022-08-25T08:49:22;28.92;;;18.48;;
59410;SDS011;45215;32.610;-115.482;2022-08-25T08:52:12;28.92;;;18.08;;
59410;SDS011;45215;32.610;-115.482;2022-08-25T08:54:42;29.50;;;19.02;;
59410;SDS011;45215;32.610;-115.482;2022-08-25T08:57:15;29.25;;;19.10;;
59410;SDS011;45215;32.610;-115.482;2022-08-25T08:59:52;31.13;;;19.13;;
59410;SDS011;45215;32.610;-115.482;2022-08-25T09:02:42;30.15;;;19.63;;
59410;SDS011;45215;32.610;-115.482;2022-08-25T09:05:23;30.30;;;18.73;;
59410;SDS011;45215;32.610;-115.482;2022-08-25T09:07:54;31.63;;;19.65;;
59410;SDS011;45215;32.610;-115.482;2022-08-25T09:10:23;29.17;;;19.30;;
59410;SDS011;45215;32.610;-115.482;2022-08-25T09:12:57;31.50;;;19.42;;
59410;SDS011;45215;32.610;-115.482;2022-08-25T09:19:35;26.70;;;18.13;;
59410;SDS011;45215;32.610;-115.482;2022-08-25T09:21:47;28.17;;;18.43;;
59410;SDS011;45215;32.610;-115.482;2022-08-25T09:26:48;39.08;;;23.88;;
59410;SDS011;45215;32.610;-115.482;2022-08-25T09:29:24;40.05;;;24.55;;
59410;SDS011;45215;32.610;-115.482;2022-08-25T09:31:58;40.38;;;25.15;;
59410;SDS011;45215;32.610;-115.482;2022-08-25T09:34:28;44.00;;;26.67;;
59410;SDS011;45215;32.610;-115.482;2022-08-25T09:36:58;48.75;;;27.63;;
59410;SDS011;45215;32.610;-115.482;2022-08-25T09:39:25;47.83;;;27.55;;
59410;SDS011;45215;32.610;-115.482;2022-08-25T09:41:58;46.03;;;28.27;;
59410;SDS011;45215;32.610;-115.482;2022-08-25T09:54:57;47.50;;;28.65;;
59410;SDS011;45215;32.610;-115.482;2022-08-25T10:02:40;46.30;;;27.58;;
59410;SDS011;45215;32.610;-115.482;2022-08-25T10:05:19;46.75;;;27.35;;
59410;SDS011;45215;32.610;-115.482;2022-08-25T10:07:52;46.17;;;27.23;;
59410;SDS011;45215;32.610;-115.482;2022-08-25T10:10:23;46.10;;;26.73;;
59410;SDS011;45215;32.610;-115.482;2022-08-25T10:12:55;42.53;;;25.40;;
59410;SDS011;45215;32.610;-115.482;2022-08-25T10:15:27;43.70;;;26.30;;
59410;SDS011;45215;32.610;-115.482;2022-08-25T10:21:03;39.90;;;24.15;;
59410;SDS011;45215;32.610;-115.482;2022-08-25T10:23:49;40.03;;;21.40;;
59410;SDS011;45215;32.610;-115.482;2022-08-25T10:45:21;31.42;;;18.83;;
59410;SDS011;45215;32.610;-115.482;2022-08-25T10:56:37;27.40;;;16.00;;
59410;SDS011;45215;32.610;-115.482;2022-08-25T11:04:30;23.13;;;14.27;;
59410;SDS011;45215;32.610;-115.482;2022-08-25T11:09:33;22.90;;;13.95;;
59410;SDS011;45215;32.610;-115.482;2022-08-25T11:12:07;21.27;;;13.25;;
59410;SDS011;45215;32.610;-115.482;2022-08-25T11:14:45;19.83;;;12.60;;
59410;SDS011;45215;32.610;-115.482;2022-08-25T11:17:25;19.40;;;12.10;;
59410;SDS011;45215;32.610;-115.482;2022-08-25T11:20:15;18.65;;;11.50;;
59410;SDS011;45215;32.610;-115.482;2022-08-25T11:22:46;16.75;;;10.68;;
59410;SDS011;45215;32.610;-115.482;2022-08-25T11:25:45;18.58;;;10.60;;
59410;SDS011;45215;32.610;-115.482;2022-08-25T11:33:28;15.77;;;9.95;;
59410;SDS011;45215;32.610;-115.482;2022-08-25T11:35:57;14.77;;;9.43;;
59410;SDS011;45215;32.610;-115.482;2022-08-25T11:44:03;13.80;;;8.48;;
59410;SDS011;45215;32.610;-115.482;2022-08-25T11:46:54;13.13;;;8.80;;
59410;SDS011;45215;32.610;-115.482;2022-08-25T11:49:48;13.60;;;8.55;;
59410;SDS011;45215;32.610;-115.482;2022-08-25T11:57:47;10.80;;;7.32;;
59410;SDS011;45215;32.610;-115.482;2022-08-25T12:14:17;12.60;;;6.45;;
59410;SDS011;45215;32.610;-115.482;2022-08-25T12:17:06;8.75;;;6.00;;
59410;SDS011;45215;32.610;-115.482;2022-08-25T12:27:10;7.32;;;5.03;;
59410;SDS011;45215;32.610;-115.482;2022-08-25T12:29:52;8.20;;;4.88;;
59410;SDS011;45215;32.610;-115.482;2022-08-25T12:37:58;6.45;;;4.60;;
59410;SDS011;45215;32.610;-115.482;2022-08-25T12:45:53;6.15;;;4.07;;
59410;SDS011;45215;32.610;-115.482;2022-08-25T12:48:40;5.50;;;4.00;;
59410;SDS011;45215;32.610;-115.482;2022-08-25T12:51:19;5.40;;;3.83;;
59410;SDS011;45215;32.610;-115.482;2022-08-25T12:56:25;7.30;;;4.30;;
59410;SDS011;45215;32.610;-115.482;2022-08-25T12:59:17;5.15;;;3.40;;
59410;SDS011;45215;32.610;-115.482;2022-08-25T13:16:19;4.25;;;3.13;;
59410;SDS011;45215;32.610;-115.482;2022-08-25T13:18:54;5.03;;;3.15;;
59410;SDS011;45215;32.610;-115.482;2022-08-25T13:21:31;4.72;;;2.97;;
59410;SDS011;45215;32.610;-115.482;2022-08-25T13:24:17;4.43;;;2.95;;
59410;SDS011;45215;32.610;-115.482;2022-08-25T13:27:05;4.00;;;2.70;;
59410;SDS011;45215;32.610;-115.482;2022-08-25T13:29:35;4.28;;;2.35;;
59410;SDS011;45215;32.610;-115.482;2022-08-25T13:32:15;2.70;;;2.20;;
59410;SDS011;45215;32.610;-115.482;2022-08-25T13:34:49;3.25;;;2.40;;
59410;SDS011;45215;32.610;-115.482;2022-08-25T13:37:22;3.78;;;2.42;;
59410;SDS011;45215;32.610;-115.482;2022-08-25T13:40:08;3.08;;;2.17;;
59410;SDS011;45215;32.610;-115.482;2022-08-25T13:42:38;3.85;;;2.30;;
59410;SDS011;45215;32.610;-115.482;2022-08-25T13:45:06;3.13;;;2.20;;
59410;SDS011;45215;32.610;-115.482;2022-08-25T13:47:37;3.08;;;2.47;;
59410;SDS011;45215;32.610;-115.482;2022-08-25T13:52:53;4.15;;;2.40;;
59410;SDS011;45215;32.610;-115.482;2022-08-25T13:58:05;2.72;;;2.00;;
59410;SDS011;45215;32.610;-115.482;2022-08-25T14:00:40;3.03;;;2.20;;
59410;SDS011;45215;32.610;-115.482;2022-08-25T14:03:27;2.95;;;1.90;;
59410;SDS011;45215;32.610;-115.482;2022-08-25T14:06:09;3.10;;;2.20;;
59410;SDS011;45215;32.610;-115.482;2022-08-25T14:08:39;5.53;;;1.92;;
59410;SDS011;45215;32.610;-115.482;2022-08-25T14:11:31;4.32;;;2.08;;
59410;SDS011;45215;32.610;-115.482;2022-08-25T14:14:10;2.90;;;1.95;;
59410;SDS011;45215;32.610;-115.482;2022-08-25T14:17:00;2.65;;;1.70;;
59410;SDS011;45215;32.610;-115.482;2022-08-25T14:19:34;4.60;;;2.10;;
59410;SDS011;45215;32.610;-115.482;2022-08-25T14:22:11;3.05;;;2.08;;
59410;SDS011;45215;32.610;-115.482;2022-08-25T14:24:38;2.50;;;1.80;;
59410;SDS011;45215;32.610;-115.482;2022-08-25T14:27:06;2.90;;;2.10;;
59410;SDS011;45215;32.610;-115.482;2022-08-25T14:29:32;3.03;;;1.80;;
59410;SDS011;45215;32.610;-115.482;2022-08-25T14:31:58;4.82;;;1.60;;
59410;SDS011;45215;32.610;-115.482;2022-08-25T14:34:28;2.03;;;1.52;;
59410;SDS011;45215;32.610;-115.482;2022-08-25T14:37:00;3.05;;;2.08;;
59410;SDS011;45215;32.610;-115.482;2022-08-25T14:39:31;3.88;;;1.92;;
59410;SDS011;45215;32.610;-115.482;2022-08-25T14:41:57;2.25;;;1.63;;
59410;SDS011;45215;32.610;-115.482;2022-08-25T14:44:23;2.70;;;1.98;;
59410;SDS011;45215;32.610;-115.482;2022-08-25T14:46:50;2.20;;;1.80;;
59410;SDS011;45215;32.610;-115.482;2022-08-25T14:49:22;3.17;;;1.70;;
59410;SDS011;45215;32.610;-115.482;2022-08-25T14:51:54;3.85;;;2.03;;
59410;SDS011;45215;32.610;-115.482;2022-08-25T14:54:22;4.20;;;2.15;;
59410;SDS011;45215;32.610;-115.482;2022-08-25T14:56:51;4.50;;;2.08;;
59410;SDS011;45215;32.610;-115.482;2022-08-25T14:59:18;3.35;;;1.75;;
59410;SDS011;45215;32.610;-115.482;2022-08-25T15:01:44;2.90;;;1.90;;
59410;SDS011;45215;32.610;-115.482;2022-08-25T15:04:13;3.28;;;2.03;;
59410;SDS011;45215;32.610;-115.482;2022-08-25T15:06:49;3.85;;;1.90;;
59410;SDS011;45215;32.610;-115.482;2022-08-25T15:09:19;3.25;;;1.85;;
59410;SDS011;45215;32.610;-115.482;2022-08-25T15:11:55;4.82;;;1.90;;
59410;SDS011;45215;32.610;-115.482;2022-08-25T15:14:23;3.15;;;1.80;;
59410;SDS011;45215;32.610;-115.482;2022-08-25T15:16:51;3.25;;;1.90;;
59410;SDS011;45215;32.610;-115.482;2022-08-25T15:19:22;2.50;;;1.70;;
59410;SDS011;45215;32.610;-115.482;2022-08-25T15:21:51;3.15;;;1.92;;
59410;SDS011;45215;32.610;-115.482;2022-08-25T15:24:18;3.15;;;2.10;;
59410;SDS011;45215;32.610;-115.482;2022-08-25T15:26:52;2.58;;;1.88;;
59410;SDS011;45215;32.610;-115.482;2022-08-25T15:29:20;3.03;;;2.20;;
59410;SDS011;45215;32.610;-115.482;2022-08-25T15:31:47;3.58;;;1.90;;
59410;SDS011;45215;32.610;-115.482;2022-08-25T15:34:14;4.20;;;1.80;;
59410;SDS011;45215;32.610;-115.482;2022-08-25T15:36:40;2.00;;;1.50;;
59410;SDS011;45215;32.610;-115.482;2022-08-25T15:39:06;2.42;;;1.80;;
59410;SDS011;45215;32.610;-115.482;2022-08-25T15:41:34;2.28;;;1.50;;
59410;SDS011;45215;32.610;-115.482;2022-08-25T15:44:02;2.00;;;1.60;;
59410;SDS011;45215;32.610;-115.482;2022-08-25T15:46:30;2.72;;;1.55;;
59410;SDS011;45215;32.610;-115.482;2022-08-25T15:48:58;2.33;;;1.40;;
59410;SDS011;45215;32.610;-115.482;2022-08-25T15:51:25;2.45;;;1.60;;
59410;SDS011;45215;32.610;-115.482;2022-08-25T15:53:53;1.80;;;1.40;;
59410;SDS011;45215;32.610;-115.482;2022-08-25T15:56:19;1.83;;;1.40;;
59410;SDS011;45215;32.610;-115.482;2022-08-25T15:58:48;2.45;;;1.98;;
59410;SDS011;45215;32.610;-115.482;2022-08-25T16:01:16;2.22;;;1.50;;
59410;SDS011;45215;32.610;-115.482;2022-08-25T16:03:44;3.08;;;1.90;;
59410;SDS011;45215;32.610;-115.482;2022-08-25T16:06:10;1.73;;;1.50;;
59410;SDS011;45215;32.610;-115.482;2022-08-25T16:08:37;1.73;;;1.27;;
59410;SDS011;45215;32.610;-115.482;2022-08-25T16:11:05;6.05;;;1.80;;
59410;SDS011;45215;32.610;-115.482;2022-08-25T16:13:31;3.40;;;1.70;;
59410;SDS011;45215;32.610;-115.482;2022-08-25T16:15:58;2.72;;;1.60;;
59410;SDS011;45215;32.610;-115.482;2022-08-25T16:18:25;2.47;;;1.63;;
59410;SDS011;45215;32.610;-115.482;2022-08-25T16:20:51;1.92;;;1.40;;
59410;SDS011;45215;32.610;-115.482;2022-08-25T16:23:18;3.20;;;1.42;;
59410;SDS011;45215;32.610;-115.482;2022-08-25T16:25:45;2.05;;;1.23;;
59410;SDS011;45215;32.610;-115.482;2022-08-25T16:28:13;2.35;;;1.50;;
59410;SDS011;45215;32.610;-115.482;2022-08-25T16:30:45;1.75;;;1.30;;
59410;SDS011;45215;32.610;-115.482;2022-08-25T16:33:12;2.58;;;1.30;;